sensor_id;sensor_type;location;lat;lon;timestamp;pressure;altitude;pressure_sealevel;temperature;humidity
10392;BME280;5242;49.244;6.774;2022-08-06T00:05:41;100210.00;;;16.79;63.61
10392;BME280;5242;49.244;6.774;2022-08-06T00:13:36;100216.50;;;16.63;64.02
10392;BME280;5242;49.244;6.774;2022-08-06T00:21:31;100235.81;;;16.33;64.75
10392;BME280;5242;49.244;6.774;2022-08-06T00:29:33;100234.72;;;16.07;65.95
10392;BME280;5242;49.244;6.774;2022-08-06T00:37:41;100241.81;;;15.78;68.39
10392;BME280;5242;49.244;6.774;2022-08-06T00:45:49;100243.44;;;15.56;66.20
10392;BME280;5242;49.244;6.774;2022-08-06T00:53:41;100251.09;;;15.43;67.43
10392;BME280;5242;49.244;6.774;2022-08-06T01:01:34;100252.19;;;15.39;67.99
10392;BME280;5242;49.244;6.774;2022-08-06T01:09:41;100270.50;;;15.31;68.25
10392;BME280;5242;49.244;6.774;2022-08-06T01:17:55;100275.63;;;15.10;68.04
10392;BME280;5242;49.244;6.774;2022-08-06T01:34:20;100275.38;;;14.95;69.56
10392;BME280;5242;49.244;6.774;2022-08-06T01:42:23;100279.41;;;15.02;69.13
10392;BME280;5242;49.244;6.774;2022-08-06T01:50:31;100286.00;;;15.20;69.36
10392;BME280;5242;49.244;6.774;2022-08-06T01:58:37;100286.28;;;15.38;69.27
10392;BME280;5242;49.244;6.774;2022-08-06T02:06:37;100284.34;;;15.38;69.01
10392;BME280;5242;49.244;6.774;2022-08-06T02:14:36;100292.69;;;15.46;68.74
10392;BME280;5242;49.244;6.774;2022-08-06T02:22:37;100297.50;;;15.52;68.36
10392;BME280;5242;49.244;6.774;2022-08-06T02:30:35;100300.50;;;15.43;68.36
10392;BME280;5242;49.244;6.774;2022-08-06T02:38:46;100305.44;;;15.34;70.28
10392;BME280;5242;49.244;6.774;2022-08-06T02:46:54;100310.25;;;15.18;69.58
10392;BME280;5242;49.244;6.774;2022-08-06T02:54:57;100313.91;;;15.03;70.22
10392;BME280;5242;49.244;6.774;2022-08-06T03:02:54;100308.84;;;15.05;70.52
10392;BME280;5242;49.244;6.774;2022-08-06T03:10:48;100311.72;;;15.12;70.88
10392;BME280;5242;49.244;6.774;2022-08-06T03:18:42;100306.84;;;15.02;71.25
10392;BME280;5242;49.244;6.774;2022-08-06T03:26:39;100322.28;;;14.90;70.86
10392;BME280;5242;49.244;6.774;2022-08-06T03:34:32;100323.47;;;14.89;70.18
10392;BME280;5242;49.244;6.774;2022-08-06T03:42:24;100315.88;;;14.83;71.33
10392;BME280;5242;49.244;6.774;2022-08-06T03:50:33;100320.72;;;14.70;71.54
10392;BME280;5242;49.244;6.774;2022-08-06T03:58:27;100329.53;;;14.60;71.02
10392;BME280;5242;49.244;6.774;2022-08-06T04:06:20;100342.56;;;14.47;71.23
10392;BME280;5242;49.244;6.774;2022-08-06T04:14:18;100350.41;;;14.29;71.69
10392;BME280;5242;49.244;6.774;2022-08-06T04:22:18;100360.47;;;14.05;72.43
10392;BME280;5242;49.244;6.774;2022-08-06T04:30:31;100355.81;;;13.90;73.15
10392;BME280;5242;49.244;6.774;2022-08-06T04:38:25;100373.03;;;13.75;74.51
10392;BME280;5242;49.244;6.774;2022-08-06T04:46:22;100378.72;;;13.66;74.50
10392;BME280;5242;49.244;6.774;2022-08-06T04:54:18;100373.84;;;13.75;74.91
10392;BME280;5242;49.244;6.774;2022-08-06T05:02:18;100374.38;;;13.81;74.27
10392;BME280;5242;49.244;6.774;2022-08-06T05:10:12;100386.09;;;13.97;74.86
10392;BME280;5242;49.244;6.774;2022-08-06T05:18:12;100384.16;;;14.33;72.69
10392;BME280;5242;49.244;6.774;2022-08-06T05:26:25;100399.25;;;14.78;70.97
10392;BME280;5242;49.244;6.774;2022-08-06T05:34:17;100401.59;;;15.18;69.30
10392;BME280;5242;49.244;6.774;2022-08-06T05:42:10;100407.50;;;15.63;68.08
10392;BME280;5242;49.244;6.774;2022-08-06T05:50:06;100412.06;;;16.01;66.30
10392;BME280;5242;49.244;6.774;2022-08-06T05:58:13;100406.81;;;16.16;64.71
10392;BME280;5242;49.244;6.774;2022-08-06T06:06:06;100400.97;;;16.47;63.68
10392;BME280;5242;49.244;6.774;2022-08-06T06:22:35;100418.91;;;16.98;59.88
10392;BME280;5242;49.244;6.774;2022-08-06T06:30:52;100416.06;;;17.25;60.60
10392;BME280;5242;49.244;6.774;2022-08-06T06:39:03;100420.69;;;17.54;57.72
10392;BME280;5242;49.244;6.774;2022-08-06T06:47:02;100419.81;;;17.88;56.87
10392;BME280;5242;49.244;6.774;2022-08-06T06:55:04;100436.75;;;18.41;56.13
10392;BME280;5242;49.244;6.774;2022-08-06T07:03:10;100429.09;;;18.83;52.41
10392;BME280;5242;49.244;6.774;2022-08-06T07:11:04;100422.50;;;19.13;50.10
10392;BME280;5242;49.244;6.774;2022-08-06T07:18:57;100434.88;;;19.83;46.37
10392;BME280;5242;49.244;6.774;2022-08-06T07:26:53;100436.03;;;20.18;46.48
10392;BME280;5242;49.244;6.774;2022-08-06T07:34:45;100442.69;;;20.60;44.88
10392;BME280;5242;49.244;6.774;2022-08-06T07:42:39;100434.59;;;21.09;44.37
10392;BME280;5242;49.244;6.774;2022-08-06T07:50:32;100420.72;;;21.75;43.14
10392;BME280;5242;49.244;6.774;2022-08-06T07:58:25;100417.56;;;22.60;41.64
10392;BME280;5242;49.244;6.774;2022-08-06T08:06:22;100409.16;;;23.55;40.88
10392;BME280;5242;49.244;6.774;2022-08-06T08:14:23;100414.72;;;23.55;36.48
10392;BME280;5242;49.244;6.774;2022-08-06T08:22:18;100413.50;;;23.56;37.92
10392;BME280;5242;49.244;6.774;2022-08-06T08:30:14;100420.84;;;23.70;36.09
10392;BME280;5242;49.244;6.774;2022-08-06T08:38:07;100414.75;;;25.58;31.50
10392;BME280;5242;49.244;6.774;2022-08-06T08:46:00;100386.53;;;27.92;28.50
10392;BME280;5242;49.244;6.774;2022-08-06T08:53:58;100396.66;;;30.08;28.40
10392;BME280;5242;49.244;6.774;2022-08-06T09:01:52;100396.09;;;31.92;24.93
10392;BME280;5242;49.244;6.774;2022-08-06T09:09:49;100403.72;;;31.53;23.82
10392;BME280;5242;49.244;6.774;2022-08-06T09:17:52;100416.56;;;28.92;24.90
10392;BME280;5242;49.244;6.774;2022-08-06T09:26:04;100400.66;;;30.81;23.93
10392;BME280;5242;49.244;6.774;2022-08-06T09:34:03;100403.34;;;32.08;20.81
10392;BME280;5242;49.244;6.774;2022-08-06T09:42:15;100387.78;;;31.98;20.76
10392;BME280;5242;49.244;6.774;2022-08-06T09:50:35;100386.56;;;31.41;22.04
10392;BME280;5242;49.244;6.774;2022-08-06T09:58:32;100381.00;;;31.23;22.09
10392;BME280;5242;49.244;6.774;2022-08-06T10:06:26;100376.03;;;32.83;21.86
10392;BME280;5242;49.244;6.774;2022-08-06T10:14:32;100355.44;;;34.29;18.80
10392;BME280;5242;49.244;6.774;2022-08-06T10:22:24;100366.03;;;31.74;21.55
10392;BME280;5242;49.244;6.774;2022-08-06T10:30:18;100363.13;;;31.45;21.65
10392;BME280;5242;49.244;6.774;2022-08-06T10:38:14;100369.66;;;31.08;20.94
10392;BME280;5242;49.244;6.774;2022-08-06T10:46:10;100356.69;;;31.68;21.51
10392;BME280;5242;49.244;6.774;2022-08-06T10:54:06;100369.53;;;29.86;22.57
10392;BME280;5242;49.244;6.774;2022-08-06T11:18:59;100344.59;;;30.77;20.40
10392;BME280;5242;49.244;6.774;2022-08-06T11:26:58;100348.13;;;30.17;21.03
10392;BME280;5242;49.244;6.774;2022-08-06T11:51:54;100306.22;;;31.40;20.95
10392;BME280;5242;49.244;6.774;2022-08-06T12:08:15;100299.72;;;31.73;19.16
10392;BME280;5242;49.244;6.774;2022-08-06T12:16:35;100301.78;;;31.49;19.77
10392;BME280;5242;49.244;6.774;2022-08-06T12:24:28;100290.16;;;30.98;19.97
10392;BME280;5242;49.244;6.774;2022-08-06T12:32:39;100271.09;;;31.90;19.58
10392;BME280;5242;49.244;6.774;2022-08-06T12:49:34;100241.28;;;33.28;17.74
10392;BME280;5242;49.244;6.774;2022-08-06T12:57:32;100250.00;;;31.85;18.58
10392;BME280;5242;49.244;6.774;2022-08-06T13:05:46;100243.38;;;31.34;18.54
10392;BME280;5242;49.244;6.774;2022-08-06T13:13:50;100235.28;;;32.35;18.14
10392;BME280;5242;49.244;6.774;2022-08-06T13:22:02;100254.53;;;32.21;18.12
10392;BME280;5242;49.244;6.774;2022-08-06T13:30:00;100225.56;;;32.36;17.25
10392;BME280;5242;49.244;6.774;2022-08-06T13:38:33;100218.91;;;31.26;18.63
10392;BME280;5242;49.244;6.774;2022-08-06T13:46:27;100223.50;;;29.50;19.47
10392;BME280;5242;49.244;6.774;2022-08-06T13:54:24;100214.34;;;28.40;20.15
10392;BME280;5242;49.244;6.774;2022-08-06T14:02:16;100206.16;;;28.24;20.64
10392;BME280;5242;49.244;6.774;2022-08-06T14:10:09;100201.66;;;27.95;20.39
10392;BME280;5242;49.244;6.774;2022-08-06T14:18:02;100206.81;;;27.97;20.02
10392;BME280;5242;49.244;6.774;2022-08-06T14:25:55;100192.03;;;27.74;20.27
10392;BME280;5242;49.244;6.774;2022-08-06T14:33:54;100178.22;;;27.58;20.82
10392;BME280;5242;49.244;6.774;2022-08-06T14:41:52;100182.22;;;27.35;21.83
10392;BME280;5242;49.244;6.774;2022-08-06T14:50:03;100181.75;;;27.71;20.96
10392;BME280;5242;49.244;6.774;2022-08-06T14:57:57;100179.72;;;27.72;20.68
10392;BME280;5242;49.244;6.774;2022-08-06T15:05:59;100176.38;;;27.20;21.47
10392;BME280;5242;49.244;6.774;2022-08-06T15:13:57;100168.66;;;26.99;22.42
10392;BME280;5242;49.244;6.774;2022-08-06T15:21:49;100166.03;;;26.82;22.98
10392;BME280;5242;49.244;6.774;2022-08-06T15:29:48;100149.94;;;26.74;23.09
10392;BME280;5242;49.244;6.774;2022-08-06T15:37:40;100151.41;;;26.65;23.16
10392;BME280;5242;49.244;6.774;2022-08-06T15:45:47;100150.63;;;26.78;23.04
10392;BME280;5242;49.244;6.774;2022-08-06T15:53:42;100143.78;;;26.79;22.87
10392;BME280;5242;49.244;6.774;2022-08-06T16:01:45;100138.00;;;26.48;23.31
10392;BME280;5242;49.244;6.774;2022-08-06T16:09:55;100134.56;;;26.31;23.39
10392;BME280;5242;49.244;6.774;2022-08-06T16:17:57;100138.44;;;25.95;23.77
10392;BME280;5242;49.244;6.774;2022-08-06T16:26:09;100121.13;;;26.00;24.01
10392;BME280;5242;49.244;6.774;2022-08-06T16:34:22;100122.91;;;25.94;24.16
10392;BME280;5242;49.244;6.774;2022-08-06T16:42:21;100122.72;;;25.59;24.70
10392;BME280;5242;49.244;6.774;2022-08-06T16:50:15;100124.75;;;25.29;24.87
10392;BME280;5242;49.244;6.774;2022-08-06T16:58:18;100117.66;;;25.54;24.64
10392;BME280;5242;49.244;6.774;2022-08-06T17:06:30;100118.38;;;25.58;24.46
10392;BME280;5242;49.244;6.774;2022-08-06T17:14:26;100121.69;;;25.53;24.71
10392;BME280;5242;49.244;6.774;2022-08-06T17:22:18;100119.84;;;25.33;24.93
10392;BME280;5242;49.244;6.774;2022-08-06T17:30:12;100110.88;;;25.26;25.38
10392;BME280;5242;49.244;6.774;2022-08-06T17:38:07;100107.59;;;24.85;25.52
10392;BME280;5242;49.244;6.774;2022-08-06T17:46:06;100114.09;;;24.79;26.01
10392;BME280;5242;49.244;6.774;2022-08-06T17:54:17;100124.31;;;24.52;25.83
10392;BME280;5242;49.244;6.774;2022-08-06T18:02:30;100126.00;;;24.30;25.64
10392;BME280;5242;49.244;6.774;2022-08-06T18:10:22;100139.53;;;24.12;25.77
10392;BME280;5242;49.244;6.774;2022-08-06T18:18:22;100144.09;;;23.85;26.36
10392;BME280;5242;49.244;6.774;2022-08-06T18:26:15;100144.34;;;23.71;26.52
10392;BME280;5242;49.244;6.774;2022-08-06T18:34:07;100152.69;;;23.51;26.72
10392;BME280;5242;49.244;6.774;2022-08-06T18:42:09;100157.88;;;23.29;27.33
10392;BME280;5242;49.244;6.774;2022-08-06T18:50:09;100160.09;;;22.91;27.56
10392;BME280;5242;49.244;6.774;2022-08-06T18:58:02;100173.94;;;22.67;28.46
10392;BME280;5242;49.244;6.774;2022-08-06T19:06:04;100175.13;;;22.43;28.33
10392;BME280;5242;49.244;6.774;2022-08-06T19:13:56;100180.25;;;22.13;29.25
10392;BME280;5242;49.244;6.774;2022-08-06T19:22:09;100192.47;;;21.89;29.20
10392;BME280;5242;49.244;6.774;2022-08-06T19:30:09;100193.53;;;21.64;29.50
10392;BME280;5242;49.244;6.774;2022-08-06T19:38:21;100198.53;;;21.42;29.91
10392;BME280;5242;49.244;6.774;2022-08-06T19:46:16;100216.13;;;21.18;30.45
10392;BME280;5242;49.244;6.774;2022-08-06T19:54:24;100209.19;;;20.95;30.81
10392;BME280;5242;49.244;6.774;2022-08-06T20:02:27;100223.28;;;20.59;32.07
10392;BME280;5242;49.244;6.774;2022-08-06T20:10:20;100215.97;;;20.20;32.20
10392;BME280;5242;49.244;6.774;2022-08-06T20:18:27;100235.06;;;19.90;33.08
10392;BME280;5242;49.244;6.774;2022-08-06T20:26:20;100227.97;;;19.82;33.51
10392;BME280;5242;49.244;6.774;2022-08-06T20:34:26;100228.00;;;19.67;33.15
10392;BME280;5242;49.244;6.774;2022-08-06T20:42:20;100220.91;;;19.55;34.53
10392;BME280;5242;49.244;6.774;2022-08-06T20:50:12;100234.31;;;19.43;34.14
10392;BME280;5242;49.244;6.774;2022-08-06T20:58:04;100229.22;;;19.27;34.67
10392;BME280;5242;49.244;6.774;2022-08-06T21:05:57;100235.94;;;19.11;35.18
10392;BME280;5242;49.244;6.774;2022-08-06T21:13:53;100226.88;;;18.89;35.96
10392;BME280;5242;49.244;6.774;2022-08-06T21:21:57;100230.31;;;18.58;35.99
10392;BME280;5242;49.244;6.774;2022-08-06T21:29:50;100230.69;;;18.45;35.98
10392;BME280;5242;49.244;6.774;2022-08-06T21:38:01;100227.16;;;18.41;36.25
10392;BME280;5242;49.244;6.774;2022-08-06T21:45:57;100244.03;;;18.29;37.74
10392;BME280;5242;49.244;6.774;2022-08-06T21:53:57;100250.69;;;18.14;37.05
10392;BME280;5242;49.244;6.774;2022-08-06T22:01:53;100250.13;;;17.83;37.62
10392;BME280;5242;49.244;6.774;2022-08-06T22:10:02;100243.47;;;17.29;39.81
10392;BME280;5242;49.244;6.774;2022-08-06T22:17:54;100249.09;;;16.95;40.58
10392;BME280;5242;49.244;6.774;2022-08-06T22:25:53;100257.50;;;16.76;40.98
10392;BME280;5242;49.244;6.774;2022-08-06T22:33:47;100248.75;;;16.66;41.44
10392;BME280;5242;49.244;6.774;2022-08-06T22:41:55;100244.66;;;16.49;41.05
10392;BME280;5242;49.244;6.774;2022-08-06T22:49:58;100253.28;;;16.48;41.72
10392;BME280;5242;49.244;6.774;2022-08-06T22:57:52;100235.41;;;16.65;40.92
10392;BME280;5242;49.244;6.774;2022-08-06T23:06:08;100234.63;;;16.64;42.94
10392;BME280;5242;49.244;6.774;2022-08-06T23:14:00;100236.56;;;16.26;42.39
10392;BME280;5242;49.244;6.774;2022-08-06T23:21:54;100236.09;;;15.91;43.94
10392;BME280;5242;49.244;6.774;2022-08-06T23:29:55;100233.91;;;15.73;43.99
10392;BME280;5242;49.244;6.774;2022-08-06T23:38:02;100221.38;;;15.76;43.45
10392;BME280;5242;49.244;6.774;2022-08-06T23:46:14;100217.28;;;15.66;43.78
10392;BME280;5242;49.244;6.774;2022-08-06T23:54:17;100217.19;;;15.59;43.17
